Latest Weather Observations for Borroloola

IDD60801

Issued at 5:33 pm CST Friday 27 March 2015 (issued every 30 minutes, with the page automatically refreshed every 10 minutes)

About weather observations | Map of weather stations | Latest weather observations for NT | Other Formats
Station Details ID: 014723 Name: BORROLOOLA AIRPORT Lat: -16.08 Lon: 136.30 Height: 16.1 m
Data from the previous 72 hours. | See also: Recent months at Borroloola
Date/Time
CST
Temp
°C
App
Temp
°C
Dew
Point
Rel
Hum
%
Delta-T
°C
Wind Press
QNH
hPa
Press
MSL
hPa
Rain
since 9 am
mm
Dir
 
Spd
km/h
Gust
km/h
Spd
kts
Gust
kts
27/05:30pm 34.0 30.5 8.6 21 14.3 NE 17 22 9 12 1011.4 1011.3 0.0
27/05:00pm 35.2 31.5 9.6 21 14.7 NNE 19 26 10 14 1011.1 1011.0 0.0
27/04:30pm 36.1 31.7 8.8 19 15.6 NE 22 30 12 16 1011.1 1011.0 0.0
27/04:00pm 36.9 33.4 8.7 18 16.1 NE 17 24 9 13 1011.0 1010.9 0.0
27/03:30pm 37.7 32.8 2.2 11 18.5 E 17 22 9 12 1011.0 1010.9 0.0
27/03:00pm 37.7 33.8 3.4 12 18.2 ENE 13 22 7 12 1011.2 1011.1 0.0
27/02:30pm 36.9 32.1 2.8 12 17.8 E 17 26 9 14 1011.4 1011.3 0.0
27/02:00pm 38.0 33.6 4.8 13 18.0 ESE 17 28 9 15 1011.7 1011.6 0.0
27/01:30pm 36.8 31.5 2.8 12 17.8 E 20 32 11 17 1012.3 1012.2 0.0
27/01:00pm 37.2 32.3 4.2 13 17.6 E 19 33 10 18 1013.1 1013.0 0.0
27/12:30pm 37.1 32.8 5.2 14 17.3 E 17 26 9 14 1013.8 1013.7 0.0
27/12:00pm 35.6 30.1 4.0 14 16.7 ESE 22 32 12 17 1014.5 1014.4 0.0
27/11:30am 36.0 29.6 3.3 13 17.1 ESE 26 39 14 21 1015.1 1015.0 0.0
27/11:00am 35.9 30.4 4.2 14 16.8 E 22 32 12 17 1015.4 1015.3 0.0
27/10:30am 35.0 29.0 3.5 14 16.4 ESE 24 35 13 19 1015.7 1015.6 0.0
27/10:00am 34.2 28.5 4.8 16 15.6 ESE 24 32 13 17 1015.7 1015.6 0.0
27/09:30am 33.4 27.9 5.9 18 14.8 ESE 24 33 13 18 1015.6 1015.5 0.0
27/09:00am 31.6 27.4 7.3 22 13.2 SE 19 26 10 14 1015.5 1015.4 0.4
27/08:30am 30.0 26.4 10.5 30 11.1 SSE 20 28 11 15 1015.5 1015.4 0.4
27/08:00am 27.5 28.8 18.5 58 5.7 S 9 13 5 7 1015.2 1015.1 0.4
27/07:30am 24.3 28.1 22.7 91 1.1 S 7 7 4 4 1014.7 1014.6 0.4
27/07:00am 23.0 27.5 21.6 92 0.9 CALM 0 0 0 0 1014.4 1014.3 0.4
27/06:30am 23.3 28.1 22.1 93 0.8 CALM 0 2 0 1 1014.4 1014.3 0.4
27/06:00am 23.1 27.5 21.4 90 1.1 CALM 0 0 0 0 1014.1 1014.0 0.4
27/05:30am 23.9 28.8 22.3 91 1.1 CALM 0 0 0 0 1014.1 1014.0 0.4
27/05:00am 24.0 28.8 22.1 89 1.3 CALM 0 0 0 0 1014.1 1014.0 0.4
27/04:30am 24.3 29.1 22.2 88 1.4 CALM 0 0 0 0 1013.9 1013.8 0.4
27/04:00am 24.8 29.8 22.5 87 1.5 CALM 0 0 0 0 1014.1 1014.0 0.4
27/03:30am 25.3 30.4 22.6 85 1.8 CALM 0 0 0 0 1014.1 1014.0 0.4
27/03:00am 25.6 29.6 22.7 84 2.0 WSW 6 7 3 4 1014.3 1014.2 0.4
27/02:30am 25.8 29.6 22.7 83 2.1 SW 7 9 4 5 1014.5 1014.4 0.4
27/02:00am 26.1 30.0 23.0 83 2.1 WSW 7 9 4 5 1015.0 1014.9 0.4
27/01:30am 25.9 29.1 23.0 84 2.0 SSW 11 15 6 8 1015.2 1015.1 0.4
27/01:00am 26.1 31.6 23.4 85 1.8 CALM 0 0 0 0 1015.0 1014.9 0.4
27/12:30am 26.2 32.0 23.9 87 1.6 CALM 0 0 0 0 1015.2 1015.1 0.4
27/12:00am 26.3 31.9 23.6 85 1.8 CALM 0 0 0 0 1015.2 1015.1 0.4
 
Date/Time
CST
Temp
°C
App
Temp
°C
Dew
Point
Rel
Hum
%
Delta-T
°C
Wind Press
QNH
hPa
Press
MSL
hPa
Rain
since 9 am
mm
Dir
 
Spd
km/h
Gust
km/h
Spd
kts
Gust
kts
26/11:30pm 25.9 31.3 23.2 85 1.8 CALM 0 0 0 0 1015.4 1015.3 0.4
26/11:00pm 26.1 31.4 23.0 83 2.1 CALM 0 0 0 0 1015.5 1015.4 0.4
26/10:30pm 26.3 30.3 22.8 81 2.4 WNW 6 7 3 4 1015.5 1015.4 0.4
26/10:00pm 26.6 30.7 22.9 80 2.5 WNW 6 7 3 4 1015.5 1015.4 0.4
26/09:30pm 26.7 31.5 22.8 79 2.6 NNW 2 7 1 4 1015.4 1015.3 0.4
26/09:00pm 27.1 32.2 22.7 77 3.0 CALM 0 0 0 0 1015.2 1015.1 0.4
26/08:30pm 27.7 32.8 22.6 74 3.5 CALM 0 0 0 0 1014.8 1014.7 0.4
26/08:00pm 28.0 32.7 22.0 70 4.0 CALM 0 0 0 0 1014.4 1014.3 0.4
26/07:30pm 28.9 33.6 21.9 66 4.7 CALM 0 0 0 0 1014.0 1013.9 0.4
26/07:00pm 29.5 33.8 21.2 61 5.5 CALM 0 6 0 3 1013.9 1013.8 0.4
26/06:30pm 29.8 32.6 20.9 59 5.9 N 7 9 4 5 1013.3 1013.2 0.4
26/06:00pm 30.8 33.3 19.8 52 7.2 ENE 6 9 3 5 1013.1 1013.0 0.4
26/05:30pm 30.9 33.0 19.3 50 7.6 NNE 7 11 4 6 1012.6 1012.5 0.4
26/05:00pm 31.1 32.3 19.1 48 7.8 NE 11 13 6 7 1012.4 1012.3 0.4
26/04:30pm 32.7 33.8 21.2 50 7.7 NE 17 22 9 12 1012.1 1012.0 0.4
26/04:00pm 31.6 32.1 21.2 54 7.0 E 20 26 11 14 1012.3 1012.2 0.4
26/03:30pm 30.4 30.0 20.9 57 6.3 E 24 35 13 19 1012.5 1012.4 0.4
26/03:00pm 29.6 30.4 21.8 63 5.3 E 20 30 11 16 1012.8 1012.7 0.4
26/02:30pm 27.1 27.4 20.4 66 4.4 E 19 28 10 15 1013.0 1012.9 0.4
26/02:00pm 31.5 33.1 22.2 57 6.3 S 17 24 9 13 1012.9 1012.8 0.4
26/01:30pm 31.7 33.9 21.8 55 6.7 SSW 13 19 7 10 1013.2 1013.1 0.4
26/01:00pm 32.7 35.1 20.9 49 7.9 ESE 9 19 5 10 1013.7 1013.6 0.2
26/12:30pm 35.6 36.2 20.3 40 10.3 E 17 26 9 14 1013.9 1013.8 0.2
26/12:00pm 33.9 35.4 20.6 45 8.9 SE 13 26 7 14 1014.6 1014.5 0.0
26/11:30am 31.9 33.8 21.4 53 7.1 SSE 13 19 7 10 1015.3 1015.2 0.0
26/11:00am 31.9 34.6 22.9 59 6.2 SSW 13 20 7 11 1015.7 1015.6 0.0
26/10:30am 30.9 33.8 22.5 61 5.7 SSW 11 19 6 10 1015.7 1015.6 0.0
26/10:00am 30.8 33.5 23.5 65 5.0 SSW 15 19 8 10 1015.9 1015.8 0.0
26/09:30am 31.9 35.3 24.0 63 5.5 SSE 13 20 7 11 1016.0 1015.9 0.0
26/09:00am 29.8 33.4 24.4 73 3.8 SSE 13 19 7 10 1015.9 1015.8 3.6
26/08:30am 27.8 31.5 24.6 83 2.2 SSE 13 17 7 9 1015.9 1015.8 3.6
26/08:00am 26.3 30.9 24.7 91 1.1 SSE 9 13 5 7 1015.7 1015.6 3.6
26/07:30am 25.4 29.7 24.2 93 0.8 SSE 9 13 5 7 1015.3 1015.2 3.6
26/07:00am 25.0 30.0 23.8 93 0.8 SE 4 7 2 4 1014.8 1014.7 3.6
26/06:30am 25.0 30.6 23.6 92 1.0 CALM 0 0 0 0 1014.5 1014.4 3.6
26/06:00am 25.0 30.6 23.6 92 1.0 CALM 0 0 0 0 1014.3 1014.2 3.6
26/05:30am 24.9 30.1 23.5 92 1.0 S 2 6 1 3 1014.2 1014.1 3.6
26/05:00am 24.9 29.3 23.5 92 1.0 WSW 6 6 3 3 1014.0 1013.9 3.6
26/04:30am 24.9 29.0 23.3 91 1.1 WSW 7 11 4 6 1014.1 1014.0 3.6
26/04:00am 24.9 29.1 23.5 92 1.0 WSW 7 9 4 5 1014.0 1013.9 3.6
26/03:30am 24.8 29.0 23.4 92 1.0 WSW 7 9 4 5 1014.0 1013.9 3.6
26/03:00am 24.8 29.1 23.6 93 0.8 W 7 9 4 5 1013.8 1013.7 3.6
26/02:30am 24.7 29.0 23.3 92 1.0 WSW 6 7 3 4 1013.7 1013.6 3.6
26/02:00am 24.6 28.8 23.2 92 0.9 SSW 6 7 3 4 1013.8 1013.7 3.6
26/01:30am 24.8 28.9 23.2 91 1.1 WSW 7 9 4 5 1013.9 1013.8 3.6
26/01:00am 25.2 30.8 23.6 91 1.1 CALM 0 0 0 0 1014.0 1013.9 3.4
26/12:30am 25.2 30.7 23.4 90 1.2 CALM 0 0 0 0 1014.1 1014.0 3.4
26/12:00am 25.0 29.2 23.2 90 1.2 NW 6 7 3 4 1014.6 1014.5 3.4
 
Date/Time
CST
Temp
°C
App
Temp
°C
Dew
Point
Rel
Hum
%
Delta-T
°C
Wind Press
QNH
hPa
Press
MSL
hPa
Rain
since 9 am
mm
Dir
 
Spd
km/h
Gust
km/h
Spd
kts
Gust
kts
25/11:30pm 25.1 30.2 23.3 90 1.2 SSW 2 9 1 5 1015.2 1015.1 3.4
25/11:00pm 25.0 30.2 22.9 88 1.4 CALM 0 0 0 0 1015.3 1015.2 3.4
25/10:30pm 24.9 28.8 22.6 87 1.5 S 6 6 3 3 1015.4 1015.3 3.4
25/10:00pm 25.3 30.4 22.6 85 1.8 CALM 0 6 0 3 1015.4 1015.3 3.4
25/09:30pm 25.6 29.6 22.1 81 2.3 ENE 4 9 2 5 1015.3 1015.2 3.4
25/09:00pm 25.3 27.8 21.8 81 2.3 E 11 13 6 7 1014.4 1014.3 3.4
25/08:30pm 25.0 27.6 21.9 83 2.1 ENE 11 17 6 9 1014.2 1014.1 3.4
25/08:00pm 24.6 29.2 21.7 84 1.9 CALM 0 6 0 3 1014.3 1014.2 3.4
25/07:30pm 24.6 28.3 22.5 88 1.4 NNE 7 11 4 6 1014.1 1014.0 3.4
25/07:00pm 24.2 27.3 22.1 88 1.4 E 9 15 5 8 1013.6 1013.5 3.4
25/06:30pm 25.6 29.0 21.7 79 2.6 NE 6 13 3 7 1013.2 1013.1 0.4
25/06:00pm 26.8 29.5 22.8 79 2.7 ENE 13 17 7 9 1012.8 1012.7 0.4
25/05:30pm 26.6 29.5 22.4 78 2.8 ENE 11 15 6 8 1012.2 1012.1 0.4
25/05:00pm 25.2 26.5 22.7 86 1.7 NNE 20 28 11 15 1012.0 1011.9 0.2
25/04:30pm 28.8 27.7 20.3 60 5.6 NNE 26 39 14 21 1011.6 1011.5 0.0
25/04:00pm 32.2 30.8 18.8 45 8.7 NE 24 35 13 19 1010.9 1010.8 0.0
25/03:30pm 33.3 31.3 18.3 41 9.7 NE 26 41 14 22 1010.7 1010.6 0.0
25/03:00pm 35.0 33.1 18.6 38 10.7 NE 26 33 14 18 1010.4 1010.3 0.0
25/02:30pm 34.4 33.2 19.2 40 10.0 ENE 24 37 13 20 1010.6 1010.5 0.0
25/02:00pm 33.9 34.0 20.3 45 9.1 NE 20 28 11 15 1010.9 1010.8 0.0
25/01:30pm 33.3 33.3 20.1 45 8.8 ENE 20 32 11 17 1011.4 1011.3 0.0
25/01:00pm 33.2 33.5 20.7 47 8.4 ENE 20 30 11 16 1012.1 1012.0 0.0
25/12:30pm 32.0 31.5 19.9 48 8.0 ENE 22 28 12 15 1012.4 1012.3 0.0
25/12:00pm 32.5 32.8 20.7 49 7.9 ENE 20 28 11 15 1012.7 1012.6 0.0
25/11:30am 31.9 33.5 21.4 53 7.1 ENE 15 22 8 12 1013.2 1013.1 0.0
25/11:00am 30.2 33.3 22.9 65 5.0 E 11 17 6 9 1013.6 1013.5 0.0
25/10:30am 29.8 32.1 22.8 66 4.8 ENE 15 19 8 10 1013.9 1013.8 0.0
25/10:00am 29.7 33.1 23.4 69 4.3 ESE 11 15 6 8 1014.2 1014.1 0.0
25/09:30am 28.9 31.5 23.3 72 3.8 E 15 19 8 10 1014.1 1014.0 0.0
25/09:00am 27.6 31.0 24.0 81 2.5 ESE 13 19 7 10 1013.7 1013.6 1.8
25/08:30am 26.8 31.9 24.6 88 1.5 SSE 6 7 3 4 1013.6 1013.5 1.8
25/08:00am 26.0 30.6 24.2 90 1.2 SSE 7 9 4 5 1013.2 1013.1 1.8
25/07:30am 25.5 30.0 23.9 91 1.1 SSE 7 9 4 5 1012.9 1012.8 1.8
25/07:00am 25.3 29.3 23.7 91 1.1 SE 9 13 5 7 1012.8 1012.7 1.8
25/06:30am 25.3 28.8 23.5 90 1.2 SE 11 13 6 7 1012.5 1012.4 1.6
25/06:00am 25.8 29.6 23.5 87 1.6 SE 9 11 5 6 1012.4 1012.3 1.2
25/05:30am 25.5 30.0 23.6 89 1.3 SSE 6 7 3 4 1012.2 1012.1 1.2
25/05:00am 25.1 29.6 23.0 88 1.4 SSE 4 6 2 3 1012.1 1012.0 1.2
25/04:30am 24.9 28.6 22.6 87 1.5 SE 7 7 4 4 1011.9 1011.8 1.2
25/04:00am 25.3 30.4 22.6 85 1.8 CALM 0 0 0 0 1011.9 1011.8 1.2
25/03:30am 25.3 30.4 22.6 85 1.8 CALM 0 0 0 0 1011.9 1011.8 1.2
25/03:00am 24.9 28.5 22.0 84 1.9 SSE 6 9 3 5 1011.9 1011.8 1.2
25/02:30am 25.2 28.6 21.7 81 2.3 SE 6 7 3 4 1011.8 1011.7 1.2
25/02:00am 25.8 28.0 20.4 72 3.5 E 9 13 5 7 1012.0 1011.9 1.2
25/01:30am 25.7 28.0 21.4 77 2.9 ENE 11 19 6 10 1012.3 1012.2 1.2
25/01:00am 25.5 29.6 23.0 86 1.7 SE 6 9 3 5 1012.8 1012.7 1.2
25/12:30am 26.0 30.4 23.5 86 1.7 ESE 6 7 3 4 1013.2 1013.1 1.2
25/12:00am 26.0 30.0 23.7 87 1.6 SE 9 13 5 7 1013.7 1013.6 1.2
 
Date/Time
CST
Temp
°C
App
Temp
°C
Dew
Point
Rel
Hum
%
Delta-T
°C
Wind Press
QNH
hPa
Press
MSL
hPa
Rain
since 9 am
mm
Dir
 
Spd
km/h
Gust
km/h
Spd
kts
Gust
kts
24/11:30pm 25.6 30.1 23.6 89 1.4 SSW 6 6 3 3 1013.9 1013.8 1.2
24/11:00pm 25.6 30.8 23.5 88 1.4 S 2 7 1 4 1013.9 1013.8 1.2
24/10:30pm 25.6 31.2 23.5 88 1.4 CALM 0 0 0 0 1013.9 1013.8 1.2
24/10:00pm 25.6 31.2 23.5 88 1.4 CALM 0 0 0 0 1014.1 1014.0 1.2
24/09:30pm 25.6 30.0 23.5 88 1.4 WSW 6 7 3 4 1013.9 1013.8 1.2
24/09:00pm 25.7 30.9 23.6 88 1.4 WSW 2 6 1 3 1013.5 1013.4 1.2
24/08:30pm 25.7 29.8 23.0 85 1.8 WNW 6 7 3 4 1013.3 1013.2 1.0
24/08:00pm 26.0 30.5 23.7 87 1.6 SSW 6 7 3 4 1012.6 1012.5 1.0
24/07:30pm 26.2 31.8 23.5 85 1.8 CALM 0 0 0 0 1012.1 1012.0 1.0
24/07:00pm 25.8 29.6 21.7 78 2.7 N 4 9 2 5 1011.5 1011.4 0.8
24/06:30pm 27.0 29.3 21.3 71 3.8 NE 11 19 6 10 1011.1 1011.0 0.2
24/06:00pm 26.7 28.8 21.7 74 3.3 ENE 13 17 7 9 1010.8 1010.7 0.2

Other Formats:

Comma delimited format used in spreadsheet applications
http://www.bom.gov.au/fwo/IDD60801/IDD60801.94152.axf

JavaScript Object Notation format (JSON) in row-major order
http://www.bom.gov.au/fwo/IDD60801/IDD60801.94152.json